Flight Track Log - Related Links

Times and Time Zones

All times are in EDT time to prevent confusion due to time zone crossing. See the FDX1606 flight status page for this flight to view local times or setup timezone preferences in your user account.

Time Position Orientation Groundspeed Altitude Reporting Facility
EDT Latitude Longitude Course Direction KTS MPH feet Rate Location/Type
Thu 11:00:15 PM 41.9680 -87.9270 44° Northeast 12 14  Level FlightAware ADS-B
Thu 11:01:39 PM 41.9690 -87.9270 360° North 33 38 198 Level FlightAware ADS-B
Thu 11:02:09 PM 41.9700 -87.9260 37° Northeast 24 28 252 Level FlightAware ADS-B
Thu 11:03:02 PM 41.9700 -87.9200 90° East 29 33 279 Level FlightAware ADS-B
Thu 11:03:35 PM 41.9700 -87.9160 90° East 34 39 344 Level FlightAware ADS-B
Thu 11:06:00 PM 41.8077 -87.7949 154° Southeast  Level Estimated
Thu 11:06:19 PM 41.9800 -87.9210 154° Southeast 125 144  Level FlightAware ADS-B
Thu 11:06:49 PM 41.9980 -87.9400 322° Northwest 160 184 1,300 2,298 Climbing FlightAware ADS-B
Thu 11:07:06 PM 42.0050 -87.9520 308° West 150 173 1,800 1,565 Climbing FlightAware ADS-B
Thu 11:07:12 PM 42.0050 -87.9580 270° West 144 166 1,900 1,500 Climbing FlightAware ADS-B
Thu 11:07:34 PM 41.9960 -87.9720 229° Southwest 149 171 2,500 1,688 Climbing FlightAware ADS-B
Thu 11:07:44 PM 41.9900 -87.9730 187° South 153 176 2,800 1,950 Climbing FlightAware ADS-B
Thu 11:08:14 PM 41.9680 -87.9690 172° South 156 180 3,800 1,448 Climbing FlightAware ADS-B
Thu 11:08:42 PM 41.9470 -87.9650 172° South 194 223 4,200 964 Climbing FlightAware ADS-B
Thu 11:09:10 PM 41.9170 -87.9590 172° South 238 274 4,700 1,385 Climbing FlightAware ADS-B
Thu 11:09:34 PM 41.8880 -87.9550 174° South 261 300 5,400 2,077 Climbing FlightAware ADS-B
Thu 11:10:02 PM 41.8550 -87.9490 172° South 274 315 6,500 2,571 Climbing FlightAware ADS-B
Thu 11:10:30 PM 41.8210 -87.9440 174° South 276 318 7,800 2,885 Climbing FlightAware ADS-B
Thu 11:10:54 PM 41.7880 -87.9390 174° South 279 321 9,000 2,171 Climbing FlightAware ADS-B
Thu 11:13:49 PM 41.6020 -87.7690 146° Southeast 333 383 15,000 1,973 Climbing FlightAware ADS-B
Thu 11:14:33 PM 41.5130 -87.7130 155° Southeast 377 434 16,200 1,373 Climbing FlightAware ADS-B
Thu 11:15:12 PM 41.4500 -87.6740 155° Southeast 372 428 16,900 519 Climbing FlightAware ADS-B
Thu 11:15:54 PM 41.3880 -87.6350 155° Southeast 348 400 16,900 68 Level FlightAware ADS-B
Thu 11:16:40 PM 41.3220 -87.5930 154° Southeast 349 402 17,000 69 Climbing FlightAware ADS-B
Thu 11:17:21 PM 41.2620 -87.5550 155° Southeast 347 399 17,000 -73 Level FlightAware ADS-B
Thu 11:18:02 PM 41.2000 -87.5160 155° Southeast 347 399 16,900  Descending FlightAware ADS-B
Thu 11:18:46 PM 41.1390 -87.4770 154° Southeast 348 400 17,000  Climbing FlightAware ADS-B
Thu 11:19:26 PM 41.0780 -87.4390 155° Southeast 347 399 16,900 -71 Descending FlightAware ADS-B
Thu 11:20:10 PM 41.0150 -87.4000 155° Southeast 347 399 16,900  Level FlightAware ADS-B
Thu 11:20:50 PM 40.9570 -87.3630 154° Southeast 347 399 16,900  Level FlightAware ADS-B
Thu 11:21:34 PM 40.8890 -87.3200 154° Southeast 383 441 16,900  Level FlightAware ADS-B
Thu 11:22:14 PM 40.8250 -87.2810 155° Southeast 395 455 16,900  Level FlightAware ADS-B
Thu 11:22:58 PM 40.7500 -87.2340 155° Southeast 398 458 16,900  Level FlightAware ADS-B
Thu 11:23:40 PM 40.6810 -87.1920 155° Southeast 399 459 16,900  Level FlightAware ADS-B
Thu 11:24:20 PM 40.6130 -87.1500 155° Southeast 399 459 16,900  Level FlightAware ADS-B
Thu 11:25:04 PM 40.5400 -87.1050 155° Southeast 399 459 16,900  Level FlightAware ADS-B
Thu 11:25:44 PM 40.4720 -87.0630 155° Southeast 399 459 16,900  Level FlightAware ADS-B
Thu 11:26:28 PM 40.3990 -87.0190 155° Southeast 401 461 16,900  Level FlightAware ADS-B
Thu 11:27:12 PM 40.3260 -86.9740 155° Southeast 398 458 16,900 -553 Level FlightAware ADS-B
Thu 11:27:44 PM 40.2710 -86.9410 155° Southeast 394 453 16,200 -1,342 Descending FlightAware ADS-B
Thu 11:28:28 PM 40.2000 -86.8990 156° South 389 448 15,200 -1,500 Descending FlightAware ADS-B
Thu 11:29:08 PM 40.1400 -86.8420 144° Southeast 387 445 14,100 -1,929 Descending FlightAware ADS-B
Thu 11:29:52 PM 40.0900 -86.7670 131° Southeast 381 438 12,500 -1,769 Descending FlightAware ADS-B
Thu 11:30:26 PM 40.0500 -86.7100 133° Southeast 369 425 11,800 -929 Descending FlightAware ADS-B
Thu 11:31:16 PM 39.9920 -86.6250 132° Southeast 354 407 11,200 -733 Descending FlightAware ADS-B
Thu 11:31:56 PM 39.9520 -86.5660 131° Southeast 306 352 10,700 -711 Descending FlightAware ADS-B
Thu 11:32:32 PM 39.9190 -86.5190 132° Southeast 288 331 10,300 -750 Descending FlightAware ADS-B
Thu 11:33:00 PM 39.8940 -86.4840 133° Southeast 287 330 9,900 -1,179 Descending FlightAware ADS-B
Thu 11:33:28 PM 39.8700 -86.4480 131° Southeast 286 329 9,200 -1,607 Descending FlightAware ADS-B
Thu 11:33:56 PM 39.8440 -86.4110 132° Southeast 285 328 8,400 -1,472 Descending FlightAware ADS-B
Thu 11:34:21 PM 39.8230 -86.3800 131° Southeast 282 325 7,900 -1,333 Descending FlightAware ADS-B
Thu 11:34:32 PM 39.8110 -86.3670 140° Southeast 279 321 7,600 -1,565 Descending FlightAware ADS-B
Thu 11:34:44 PM 39.7970 -86.3590 156° South 274 315 7,300 -1,000 Descending FlightAware ADS-B
Thu 11:35:14 PM 39.7630 -86.3720 196° South 262 302 6,900 -414 Descending FlightAware ADS-B
Thu 11:35:42 PM 39.7390 -86.4010 223° Southwest 236 272 6,900 -429 Level FlightAware ADS-B
Thu 11:36:10 PM 39.7190 -86.4280 226° Southwest 224 258 6,500 -1,071 Descending FlightAware ADS-B
Thu 11:36:38 PM 39.6990 -86.4540 225° Southwest 220 253 5,900 -1,350 Descending FlightAware ADS-B
Thu 11:36:50 PM 39.6900 -86.4670 228° Southwest 219 252 5,600 -1,200 Descending FlightAware ADS-B
Thu 11:37:18 PM 39.6700 -86.4930 225° Southwest 216 249 5,100 -750 Descending FlightAware ADS-B
Thu 11:37:46 PM 39.6510 -86.5180 225° Southwest 214 246 4,900 -429 Descending FlightAware ADS-B
Thu 11:38:14 PM 39.6320 -86.5450 228° Southwest 215 247 4,700 -750 Descending FlightAware ADS-B
Thu 11:38:42 PM 39.6130 -86.5700 225° Southwest 214 246 4,200 -1,091 Descending FlightAware ADS-B
Thu 11:38:58 PM 39.6010 -86.5860 226° Southwest 212 244 3,900 -667 Descending FlightAware ADS-B
Thu 11:39:09 PM 39.5930 -86.5940 218° Southwest 212 244 3,900  Level FlightAware ADS-B
Thu 11:39:22 PM 39.5810 -86.5980 194° South 215 247 3,900  Level FlightAware ADS-B
Thu 11:39:46 PM 39.5590 -86.5820 151° Southeast 224 258 3,900 -600 Level FlightAware ADS-B
Thu 11:40:12 PM 39.5410 -86.5570 133° Southeast 231 266 3,400 -1,263 Descending FlightAware ADS-B
Thu 11:40:24 PM 39.5370 -86.5410 108° East 233 268 3,100 -1,000 Descending FlightAware ADS-B
Thu 11:40:42 PM 39.5390 -86.5160 84° East 233 268 2,900 -375 Descending FlightAware ADS-B
Thu 11:40:56 PM 39.5470 -86.5010 55° Northeast 212 244 2,900  Level FlightAware ADS-B
Thu 11:41:12 PM 39.5580 -86.4860 46° Northeast 193 222 2,900  Level FlightAware ADS-B
Thu 11:41:30 PM 39.5690 -86.4720 44° Northeast 192 221 2,900  Level FlightAware ADS-B
Thu 11:42:01 PM 39.5880 -86.4480 44° Northeast 191 220 2,900  Level FlightAware ADS-B
Thu 11:42:12 PM 39.5960 -86.4380 44° Northeast 191 220 2,900  Level FlightAware ADS-B
Thu 11:42:42 PM 39.6140 -86.4150 45° Northeast 170 196 2,900 -414 Level FlightAware ADS-B
Thu 11:43:10 PM 39.6300 -86.3940 45° Northeast 170 196 2,500 -894 Descending FlightAware ADS-B
Thu 11:43:29 PM 39.6400 -86.3810 45° Northeast 167 192 2,200 -875 Descending FlightAware ADS-B
Thu 11:43:58 PM 39.6560 -86.3610 44° Northeast 161 185 1,800 -737 Descending FlightAware ADS-B
Thu 11:44:26 PM 39.6710 -86.3420 44° Northeast 159 183 1,500 -750 Descending FlightAware ADS-B
Thu 11:44:54 PM 39.6850 -86.3240 45° Northeast 158 182 1,100 -840 Descending FlightAware ADS-B
Thu 11:45:16 PM 39.6970 -86.3090 44° Northeast 154 177 800 -818 Descending FlightAware ADS-B
Thu 11:45:50 PM 39.7120 -86.2900 44° Northeast 82 94 -1,412 Descending FlightAware ADS-B
Thu 11:48:10 PM 39.7120 -86.2880 90° East 15 17  Level FlightAware ADS-B
Thu 11:48:18 PM 39.7110 -86.2890 218° Southwest 34 39  Level FlightAware ADS-B
Thu 11:48:59 PM 39.7090 -86.2910 218° Southwest 26 30  Level FlightAware ADS-B
Thu 11:49:36 PM 39.7080 -86.2900 142° Southeast 23 26  Level FlightAware ADS-B

Login

Don't have an account? Register now (free) for customized features, flight alerts, and more!